sensor_id;sensor_type;location;lat;lon;timestamp;P1;durP1;ratioP1;P2;durP2;ratioP2
22282;SDS011;11310;51.528;21.204;2023-04-08T00:01:17;15.27;;;6.00;;
22282;SDS011;11310;51.528;21.204;2023-04-08T00:03:46;11.77;;;5.22;;
22282;SDS011;11310;51.528;21.204;2023-04-08T00:06:15;11.15;;;5.53;;
22282;SDS011;11310;51.528;21.204;2023-04-08T00:08:45;9.05;;;5.03;;
22282;SDS011;11310;51.528;21.204;2023-04-08T00:11:14;8.82;;;4.93;;
22282;SDS011;11310;51.528;21.204;2023-04-08T00:13:43;11.02;;;5.38;;
22282;SDS011;11310;51.528;21.204;2023-04-08T00:16:12;9.93;;;5.13;;
22282;SDS011;11310;51.528;21.204;2023-04-08T00:18:40;10.77;;;5.53;;
22282;SDS011;11310;51.528;21.204;2023-04-08T00:21:09;9.70;;;5.35;;
22282;SDS011;11310;51.528;21.204;2023-04-08T00:23:37;11.18;;;5.47;;
22282;SDS011;11310;51.528;21.204;2023-04-08T00:26:08;10.90;;;4.88;;
22282;SDS011;11310;51.528;21.204;2023-04-08T00:28:37;11.80;;;5.05;;
22282;SDS011;11310;51.528;21.204;2023-04-08T00:31:06;9.68;;;4.85;;
22282;SDS011;11310;51.528;21.204;2023-04-08T00:33:35;12.45;;;5.35;;
22282;SDS011;11310;51.528;21.204;2023-04-08T00:36:04;11.43;;;5.28;;
22282;SDS011;11310;51.528;21.204;2023-04-08T00:38:33;11.20;;;5.47;;
22282;SDS011;11310;51.528;21.204;2023-04-08T00:41:02;12.10;;;5.82;;
22282;SDS011;11310;51.528;21.204;2023-04-08T00:43:32;10.65;;;5.35;;
22282;SDS011;11310;51.528;21.204;2023-04-08T00:46:00;11.48;;;5.72;;
22282;SDS011;11310;51.528;21.204;2023-04-08T00:48:29;11.15;;;5.38;;
22282;SDS011;11310;51.528;21.204;2023-04-08T00:50:58;12.60;;;5.72;;
22282;SDS011;11310;51.528;21.204;2023-04-08T00:53:29;10.95;;;5.03;;
22282;SDS011;11310;51.528;21.204;2023-04-08T00:55:58;11.98;;;5.90;;
22282;SDS011;11310;51.528;21.204;2023-04-08T00:58:27;9.88;;;5.18;;
22282;SDS011;11310;51.528;21.204;2023-04-08T01:01:00;10.43;;;4.85;;
22282;SDS011;11310;51.528;21.204;2023-04-08T01:03:35;10.32;;;4.78;;
22282;SDS011;11310;51.528;21.204;2023-04-08T01:06:12;12.27;;;5.32;;
22282;SDS011;11310;51.528;21.204;2023-04-08T01:08:44;11.07;;;5.82;;
22282;SDS011;11310;51.528;21.204;2023-04-08T01:11:15;12.48;;;6.03;;
22282;SDS011;11310;51.528;21.204;2023-04-08T01:13:46;10.57;;;5.50;;
22282;SDS011;11310;51.528;21.204;2023-04-08T01:16:21;9.25;;;5.07;;
22282;SDS011;11310;51.528;21.204;2023-04-08T01:18:52;11.27;;;5.63;;
22282;SDS011;11310;51.528;21.204;2023-04-08T01:21:22;9.63;;;5.10;;
22282;SDS011;11310;51.528;21.204;2023-04-08T01:23:53;8.27;;;4.90;;
22282;SDS011;11310;51.528;21.204;2023-04-08T01:26:30;10.02;;;4.93;;
22282;SDS011;11310;51.528;21.204;2023-04-08T01:28:59;9.90;;;5.00;;
22282;SDS011;11310;51.528;21.204;2023-04-08T01:31:29;12.18;;;5.35;;
22282;SDS011;11310;51.528;21.204;2023-04-08T01:33:59;11.13;;;5.00;;
22282;SDS011;11310;51.528;21.204;2023-04-08T01:36:30;10.80;;;5.53;;
22282;SDS011;11310;51.528;21.204;2023-04-08T01:39:01;9.85;;;5.50;;
22282;SDS011;11310;51.528;21.204;2023-04-08T01:41:33;11.35;;;5.85;;
22282;SDS011;11310;51.528;21.204;2023-04-08T01:44:04;10.38;;;4.95;;
22282;SDS011;11310;51.528;21.204;2023-04-08T01:46:33;11.70;;;5.80;;
22282;SDS011;11310;51.528;21.204;2023-04-08T01:49:03;8.68;;;4.55;;
22282;SDS011;11310;51.528;21.204;2023-04-08T01:51:34;11.07;;;5.30;;
22282;SDS011;11310;51.528;21.204;2023-04-08T01:54:04;10.88;;;5.50;;
22282;SDS011;11310;51.528;21.204;2023-04-08T01:56:36;9.65;;;5.03;;
22282;SDS011;11310;51.528;21.204;2023-04-08T01:59:09;11.98;;;5.38;;
22282;SDS011;11310;51.528;21.204;2023-04-08T02:01:41;12.45;;;5.85;;
22282;SDS011;11310;51.528;21.204;2023-04-08T02:04:12;12.43;;;7.10;;
22282;SDS011;11310;51.528;21.204;2023-04-08T02:06:44;37.30;;;12.60;;
22282;SDS011;11310;51.528;21.204;2023-04-08T02:09:12;36.58;;;11.73;;
22282;SDS011;11310;51.528;21.204;2023-04-08T02:11:42;47.22;;;12.65;;
22282;SDS011;11310;51.528;21.204;2023-04-08T02:14:11;63.50;;;13.90;;
22282;SDS011;11310;51.528;21.204;2023-04-08T02:16:41;34.67;;;12.07;;
22282;SDS011;11310;51.528;21.204;2023-04-08T02:19:19;55.47;;;14.43;;
22282;SDS011;11310;51.528;21.204;2023-04-08T02:21:54;30.13;;;12.25;;
22282;SDS011;11310;51.528;21.204;2023-04-08T02:24:26;35.35;;;11.25;;
22282;SDS011;11310;51.528;21.204;2023-04-08T02:26:58;67.10;;;15.18;;
22282;SDS011;11310;51.528;21.204;2023-04-08T02:29:29;39.05;;;12.70;;
22282;SDS011;11310;51.528;21.204;2023-04-08T02:32:00;46.67;;;10.68;;
22282;SDS011;11310;51.528;21.204;2023-04-08T02:34:31;68.13;;;13.85;;
22282;SDS011;11310;51.528;21.204;2023-04-08T02:37:01;53.42;;;11.80;;
22282;SDS011;11310;51.528;21.204;2023-04-08T02:39:30;59.92;;;12.98;;
22282;SDS011;11310;51.528;21.204;2023-04-08T02:42:02;41.72;;;10.32;;
22282;SDS011;11310;51.528;21.204;2023-04-08T02:44:31;45.05;;;9.73;;
22282;SDS011;11310;51.528;21.204;2023-04-08T02:47:02;34.95;;;9.93;;
22282;SDS011;11310;51.528;21.204;2023-04-08T02:49:34;30.58;;;9.27;;
22282;SDS011;11310;51.528;21.204;2023-04-08T02:52:02;30.20;;;9.57;;
22282;SDS011;11310;51.528;21.204;2023-04-08T02:54:31;21.55;;;7.45;;
22282;SDS011;11310;51.528;21.204;2023-04-08T02:57:01;33.13;;;11.07;;
22282;SDS011;11310;51.528;21.204;2023-04-08T02:59:29;23.50;;;8.57;;
22282;SDS011;11310;51.528;21.204;2023-04-08T03:01:58;36.88;;;12.65;;
22282;SDS011;11310;51.528;21.204;2023-04-08T03:04:27;23.40;;;8.52;;
22282;SDS011;11310;51.528;21.204;2023-04-08T03:06:56;22.45;;;8.73;;
22282;SDS011;11310;51.528;21.204;2023-04-08T03:09:24;21.65;;;8.05;;
22282;SDS011;11310;51.528;21.204;2023-04-08T03:11:53;20.33;;;8.80;;
22282;SDS011;11310;51.528;21.204;2023-04-08T03:14:22;22.90;;;9.18;;
22282;SDS011;11310;51.528;21.204;2023-04-08T03:16:51;23.80;;;9.35;;
22282;SDS011;11310;51.528;21.204;2023-04-08T03:19:20;33.55;;;12.52;;
22282;SDS011;11310;51.528;21.204;2023-04-08T03:21:48;29.45;;;11.88;;
22282;SDS011;11310;51.528;21.204;2023-04-08T03:24:17;24.92;;;9.95;;
22282;SDS011;11310;51.528;21.204;2023-04-08T03:26:45;26.63;;;11.45;;
22282;SDS011;11310;51.528;21.204;2023-04-08T03:29:13;21.90;;;9.23;;
22282;SDS011;11310;51.528;21.204;2023-04-08T03:31:44;34.08;;;13.32;;
22282;SDS011;11310;51.528;21.204;2023-04-08T03:34:13;20.05;;;8.48;;
22282;SDS011;11310;51.528;21.204;2023-04-08T03:36:41;39.72;;;16.02;;
22282;SDS011;11310;51.528;21.204;2023-04-08T03:39:10;17.63;;;7.97;;
22282;SDS011;11310;51.528;21.204;2023-04-08T03:41:38;34.08;;;14.15;;
22282;SDS011;11310;51.528;21.204;2023-04-08T03:44:07;31.73;;;11.63;;
22282;SDS011;11310;51.528;21.204;2023-04-08T03:46:36;27.27;;;11.00;;
22282;SDS011;11310;51.528;21.204;2023-04-08T03:49:06;34.03;;;13.23;;
22282;SDS011;11310;51.528;21.204;2023-04-08T03:51:34;27.65;;;10.63;;
22282;SDS011;11310;51.528;21.204;2023-04-08T03:54:03;29.05;;;12.75;;
22282;SDS011;11310;51.528;21.204;2023-04-08T03:56:33;19.05;;;9.82;;
22282;SDS011;11310;51.528;21.204;2023-04-08T03:59:02;23.40;;;12.18;;
22282;SDS011;11310;51.528;21.204;2023-04-08T04:01:30;24.83;;;10.48;;
22282;SDS011;11310;51.528;21.204;2023-04-08T04:03:59;22.50;;;10.50;;
22282;SDS011;11310;51.528;21.204;2023-04-08T04:06:29;18.13;;;9.27;;
22282;SDS011;11310;51.528;21.204;2023-04-08T04:08:58;14.25;;;8.57;;
22282;SDS011;11310;51.528;21.204;2023-04-08T04:11:27;16.00;;;9.30;;
22282;SDS011;11310;51.528;21.204;2023-04-08T04:13:56;15.85;;;10.05;;
22282;SDS011;11310;51.528;21.204;2023-04-08T04:16:24;16.65;;;9.88;;
22282;SDS011;11310;51.528;21.204;2023-04-08T04:18:52;16.05;;;9.23;;
22282;SDS011;11310;51.528;21.204;2023-04-08T04:21:21;17.00;;;7.97;;
22282;SDS011;11310;51.528;21.204;2023-04-08T04:23:51;14.77;;;7.15;;
22282;SDS011;11310;51.528;21.204;2023-04-08T04:26:20;16.00;;;6.90;;
22282;SDS011;11310;51.528;21.204;2023-04-08T04:28:49;13.65;;;6.93;;
22282;SDS011;11310;51.528;21.204;2023-04-08T04:31:18;13.63;;;6.68;;
22282;SDS011;11310;51.528;21.204;2023-04-08T04:33:47;13.65;;;6.93;;
22282;SDS011;11310;51.528;21.204;2023-04-08T04:36:17;14.48;;;6.75;;
22282;SDS011;11310;51.528;21.204;2023-04-08T04:38:45;15.13;;;7.25;;
22282;SDS011;11310;51.528;21.204;2023-04-08T04:41:17;14.10;;;6.75;;
22282;SDS011;11310;51.528;21.204;2023-04-08T04:43:48;14.20;;;6.90;;
22282;SDS011;11310;51.528;21.204;2023-04-08T04:46:17;14.60;;;7.18;;
22282;SDS011;11310;51.528;21.204;2023-04-08T04:48:46;15.75;;;7.75;;
22282;SDS011;11310;51.528;21.204;2023-04-08T04:51:15;15.07;;;7.50;;
22282;SDS011;11310;51.528;21.204;2023-04-08T04:53:44;14.00;;;6.93;;
22282;SDS011;11310;51.528;21.204;2023-04-08T04:56:14;13.00;;;6.93;;
22282;SDS011;11310;51.528;21.204;2023-04-08T04:58:44;11.88;;;6.68;;
22282;SDS011;11310;51.528;21.204;2023-04-08T05:01:12;13.48;;;6.93;;
22282;SDS011;11310;51.528;21.204;2023-04-08T05:03:42;12.25;;;6.60;;
22282;SDS011;11310;51.528;21.204;2023-04-08T05:06:10;14.30;;;8.00;;
22282;SDS011;11310;51.528;21.204;2023-04-08T05:08:39;16.50;;;7.40;;
22282;SDS011;11310;51.528;21.204;2023-04-08T05:11:08;12.95;;;6.88;;
22282;SDS011;11310;51.528;21.204;2023-04-08T05:13:37;16.00;;;7.80;;
22282;SDS011;11310;51.528;21.204;2023-04-08T05:16:07;16.15;;;7.63;;
22282;SDS011;11310;51.528;21.204;2023-04-08T05:18:35;13.95;;;7.60;;
22282;SDS011;11310;51.528;21.204;2023-04-08T05:21:05;15.18;;;7.43;;
22282;SDS011;11310;51.528;21.204;2023-04-08T05:23:35;14.40;;;7.40;;
22282;SDS011;11310;51.528;21.204;2023-04-08T05:26:05;13.48;;;6.97;;
22282;SDS011;11310;51.528;21.204;2023-04-08T05:28:34;14.33;;;7.17;;
22282;SDS011;11310;51.528;21.204;2023-04-08T05:31:03;14.80;;;7.55;;
22282;SDS011;11310;51.528;21.204;2023-04-08T05:33:34;26.40;;;11.73;;
22282;SDS011;11310;51.528;21.204;2023-04-08T05:36:03;23.27;;;10.32;;
22282;SDS011;11310;51.528;21.204;2023-04-08T05:38:32;47.35;;;18.65;;
22282;SDS011;11310;51.528;21.204;2023-04-08T05:41:01;23.08;;;11.48;;
22282;SDS011;11310;51.528;21.204;2023-04-08T05:43:31;26.13;;;11.40;;
22282;SDS011;11310;51.528;21.204;2023-04-08T05:46:00;21.75;;;9.75;;
22282;SDS011;11310;51.528;21.204;2023-04-08T05:48:34;14.30;;;7.88;;
22282;SDS011;11310;51.528;21.204;2023-04-08T05:51:04;14.02;;;7.22;;
22282;SDS011;11310;51.528;21.204;2023-04-08T05:53:33;27.90;;;10.43;;
22282;SDS011;11310;51.528;21.204;2023-04-08T05:56:02;16.95;;;8.00;;
22282;SDS011;11310;51.528;21.204;2023-04-08T05:58:32;15.50;;;7.45;;
22282;SDS011;11310;51.528;21.204;2023-04-08T06:01:00;30.63;;;10.35;;
22282;SDS011;11310;51.528;21.204;2023-04-08T06:03:30;33.63;;;11.77;;
22282;SDS011;11310;51.528;21.204;2023-04-08T06:06:00;16.98;;;7.50;;
22282;SDS011;11310;51.528;21.204;2023-04-08T06:08:29;15.98;;;8.25;;
22282;SDS011;11310;51.528;21.204;2023-04-08T06:10:57;16.58;;;7.95;;
22282;SDS011;11310;51.528;21.204;2023-04-08T06:13:26;13.02;;;7.15;;
22282;SDS011;11310;51.528;21.204;2023-04-08T06:15:55;12.82;;;7.03;;
22282;SDS011;11310;51.528;21.204;2023-04-08T06:18:24;12.68;;;7.05;;
22282;SDS011;11310;51.528;21.204;2023-04-08T06:20:53;12.40;;;7.25;;
22282;SDS011;11310;51.528;21.204;2023-04-08T06:23:23;12.73;;;7.05;;
22282;SDS011;11310;51.528;21.204;2023-04-08T06:25:52;12.80;;;6.97;;
22282;SDS011;11310;51.528;21.204;2023-04-08T06:28:21;10.48;;;5.65;;
22282;SDS011;11310;51.528;21.204;2023-04-08T06:30:50;13.65;;;6.75;;
22282;SDS011;11310;51.528;21.204;2023-04-08T06:33:19;15.85;;;7.78;;
22282;SDS011;11310;51.528;21.204;2023-04-08T06:35:48;15.45;;;7.55;;
22282;SDS011;11310;51.528;21.204;2023-04-08T06:38:17;13.20;;;6.90;;
22282;SDS011;11310;51.528;21.204;2023-04-08T06:40:47;22.67;;;10.15;;
22282;SDS011;11310;51.528;21.204;2023-04-08T06:43:16;20.42;;;9.00;;
22282;SDS011;11310;51.528;21.204;2023-04-08T06:45:45;12.52;;;7.40;;
22282;SDS011;11310;51.528;21.204;2023-04-08T06:48:14;13.10;;;6.90;;
22282;SDS011;11310;51.528;21.204;2023-04-08T06:50:42;10.95;;;6.40;;
22282;SDS011;11310;51.528;21.204;2023-04-08T06:53:11;12.65;;;6.50;;
22282;SDS011;11310;51.528;21.204;2023-04-08T06:55:40;11.65;;;5.90;;
22282;SDS011;11310;51.528;21.204;2023-04-08T06:58:10;13.85;;;7.32;;
22282;SDS011;11310;51.528;21.204;2023-04-08T07:00:40;15.23;;;8.13;;
22282;SDS011;11310;51.528;21.204;2023-04-08T07:03:09;14.52;;;7.47;;
22282;SDS011;11310;51.528;21.204;2023-04-08T07:05:38;20.63;;;9.32;;
22282;SDS011;11310;51.528;21.204;2023-04-08T07:08:08;13.77;;;7.28;;
22282;SDS011;11310;51.528;21.204;2023-04-08T07:10:38;14.20;;;8.10;;
22282;SDS011;11310;51.528;21.204;2023-04-08T07:13:06;12.90;;;7.28;;
22282;SDS011;11310;51.528;21.204;2023-04-08T07:15:36;12.55;;;7.28;;
22282;SDS011;11310;51.528;21.204;2023-04-08T07:18:05;13.15;;;7.32;;
22282;SDS011;11310;51.528;21.204;2023-04-08T07:20:34;13.82;;;6.68;;
22282;SDS011;11310;51.528;21.204;2023-04-08T07:23:04;13.50;;;6.78;;
22282;SDS011;11310;51.528;21.204;2023-04-08T07:25:33;13.10;;;7.32;;
22282;SDS011;11310;51.528;21.204;2023-04-08T07:28:03;14.20;;;7.22;;
22282;SDS011;11310;51.528;21.204;2023-04-08T07:30:32;11.82;;;6.35;;
22282;SDS011;11310;51.528;21.204;2023-04-08T07:33:04;9.45;;;5.85;;
22282;SDS011;11310;51.528;21.204;2023-04-08T07:35:32;9.90;;;5.88;;
22282;SDS011;11310;51.528;21.204;2023-04-08T07:38:01;10.20;;;5.95;;
22282;SDS011;11310;51.528;21.204;2023-04-08T07:40:30;10.75;;;5.47;;
22282;SDS011;11310;51.528;21.204;2023-04-08T07:42:59;10.98;;;7.13;;
22282;SDS011;11310;51.528;21.204;2023-04-08T07:45:28;9.05;;;5.38;;
22282;SDS011;11310;51.528;21.204;2023-04-08T07:47:56;15.45;;;8.02;;
22282;SDS011;11310;51.528;21.204;2023-04-08T07:50:27;12.30;;;6.90;;
22282;SDS011;11310;51.528;21.204;2023-04-08T07:52:55;11.68;;;6.80;;
22282;SDS011;11310;51.528;21.204;2023-04-08T07:55:24;12.95;;;7.57;;
22282;SDS011;11310;51.528;21.204;2023-04-08T07:57:53;15.35;;;7.82;;
22282;SDS011;11310;51.528;21.204;2023-04-08T08:00:22;13.85;;;7.40;;
22282;SDS011;11310;51.528;21.204;2023-04-08T08:02:52;14.98;;;7.22;;
22282;SDS011;11310;51.528;21.204;2023-04-08T08:05:20;11.10;;;6.13;;
22282;SDS011;11310;51.528;21.204;2023-04-08T08:07:51;16.30;;;9.90;;
22282;SDS011;11310;51.528;21.204;2023-04-08T08:10:19;12.35;;;6.70;;
22282;SDS011;11310;51.528;21.204;2023-04-08T08:12:48;85.65;;;15.13;;
22282;SDS011;11310;51.528;21.204;2023-04-08T08:15:17;8.57;;;5.18;;
22282;SDS011;11310;51.528;21.204;2023-04-08T08:17:46;9.30;;;5.65;;
22282;SDS011;11310;51.528;21.204;2023-04-08T08:20:15;9.05;;;5.18;;
22282;SDS011;11310;51.528;21.204;2023-04-08T08:22:44;9.57;;;4.78;;
22282;SDS011;11310;51.528;21.204;2023-04-08T08:25:24;10.40;;;5.80;;
22282;SDS011;11310;51.528;21.204;2023-04-08T08:27:53;9.98;;;5.60;;
22282;SDS011;11310;51.528;21.204;2023-04-08T08:30:22;11.98;;;6.20;;
22282;SDS011;11310;51.528;21.204;2023-04-08T08:32:52;21.10;;;9.13;;
22282;SDS011;11310;51.528;21.204;2023-04-08T08:35:22;42.05;;;8.80;;
22282;SDS011;11310;51.528;21.204;2023-04-08T08:37:52;8.38;;;4.38;;
22282;SDS011;11310;51.528;21.204;2023-04-08T08:40:21;9.48;;;4.50;;
22282;SDS011;11310;51.528;21.204;2023-04-08T08:42:52;11.07;;;4.85;;
22282;SDS011;11310;51.528;21.204;2023-04-08T08:45:21;9.05;;;4.50;;
22282;SDS011;11310;51.528;21.204;2023-04-08T08:47:51;8.70;;;4.65;;
22282;SDS011;11310;51.528;21.204;2023-04-08T08:50:20;8.82;;;4.70;;
22282;SDS011;11310;51.528;21.204;2023-04-08T08:52:50;8.18;;;4.82;;
22282;SDS011;11310;51.528;21.204;2023-04-08T08:55:20;10.60;;;4.88;;
22282;SDS011;11310;51.528;21.204;2023-04-08T08:57:53;8.48;;;4.28;;
22282;SDS011;11310;51.528;21.204;2023-04-08T09:00:29;10.25;;;4.57;;
22282;SDS011;11310;51.528;21.204;2023-04-08T09:03:14;10.52;;;5.30;;
22282;SDS011;11310;51.528;21.204;2023-04-08T09:05:47;13.52;;;7.30;;
22282;SDS011;11310;51.528;21.204;2023-04-08T09:08:24;11.35;;;5.47;;
22282;SDS011;11310;51.528;21.204;2023-04-08T09:13:44;9.77;;;5.35;;
22282;SDS011;11310;51.528;21.204;2023-04-08T09:16:14;10.32;;;5.82;;
22282;SDS011;11310;51.528;21.204;2023-04-08T09:18:45;10.05;;;4.85;;
22282;SDS011;11310;51.528;21.204;2023-04-08T09:21:16;10.18;;;4.72;;
22282;SDS011;11310;51.528;21.204;2023-04-08T09:23:45;11.10;;;5.03;;
22282;SDS011;11310;51.528;21.204;2023-04-08T09:26:17;9.10;;;5.10;;
22282;SDS011;11310;51.528;21.204;2023-04-08T09:29:00;10.77;;;4.95;;
22282;SDS011;11310;51.528;21.204;2023-04-08T09:31:52;8.77;;;4.28;;
22282;SDS011;11310;51.528;21.204;2023-04-08T09:34:23;7.57;;;4.30;;
22282;SDS011;11310;51.528;21.204;2023-04-08T09:36:54;7.55;;;4.28;;
22282;SDS011;11310;51.528;21.204;2023-04-08T09:39:23;8.50;;;4.60;;
22282;SDS011;11310;51.528;21.204;2023-04-08T09:41:52;8.40;;;4.75;;
22282;SDS011;11310;51.528;21.204;2023-04-08T09:44:28;9.82;;;4.75;;
22282;SDS011;11310;51.528;21.204;2023-04-08T09:47:00;12.07;;;5.20;;
22282;SDS011;11310;51.528;21.204;2023-04-08T09:49:36;10.68;;;5.32;;
22282;SDS011;11310;51.528;21.204;2023-04-08T09:52:10;9.95;;;5.25;;
22282;SDS011;11310;51.528;21.204;2023-04-08T09:54:43;10.23;;;4.65;;
22282;SDS011;11310;51.528;21.204;2023-04-08T09:57:21;9.25;;;4.65;;
22282;SDS011;11310;51.528;21.204;2023-04-08T10:00:02;9.40;;;5.18;;
22282;SDS011;11310;51.528;21.204;2023-04-08T10:02:44;8.70;;;5.00;;
22282;SDS011;11310;51.528;21.204;2023-04-08T10:05:22;8.13;;;4.70;;
22282;SDS011;11310;51.528;21.204;2023-04-08T10:07:52;8.45;;;4.78;;
22282;SDS011;11310;51.528;21.204;2023-04-08T10:10:23;9.00;;;4.95;;
22282;SDS011;11310;51.528;21.204;2023-04-08T10:12:53;8.77;;;4.63;;
22282;SDS011;11310;51.528;21.204;2023-04-08T10:15:27;8.25;;;4.25;;
22282;SDS011;11310;51.528;21.204;2023-04-08T10:21:03;8.60;;;4.82;;
22282;SDS011;11310;51.528;21.204;2023-04-08T10:26:33;10.32;;;4.53;;
22282;SDS011;11310;51.528;21.204;2023-04-08T10:32:11;9.60;;;4.30;;
22282;SDS011;11310;51.528;21.204;2023-04-08T10:34:55;9.90;;;5.47;;
22282;SDS011;11310;51.528;21.204;2023-04-08T10:37:24;8.07;;;4.57;;
22282;SDS011;11310;51.528;21.204;2023-04-08T10:39:57;7.13;;;4.10;;
22282;SDS011;11310;51.528;21.204;2023-04-08T10:42:27;7.25;;;4.03;;
22282;SDS011;11310;51.528;21.204;2023-04-08T10:44:58;8.77;;;4.45;;
22282;SDS011;11310;51.528;21.204;2023-04-08T10:47:31;7.75;;;4.07;;
22282;SDS011;11310;51.528;21.204;2023-04-08T10:50:00;7.30;;;4.13;;
22282;SDS011;11310;51.528;21.204;2023-04-08T10:52:29;8.02;;;4.32;;
22282;SDS011;11310;51.528;21.204;2023-04-08T10:54:59;7.65;;;3.90;;
22282;SDS011;11310;51.528;21.204;2023-04-08T10:57:28;8.23;;;4.57;;
22282;SDS011;11310;51.528;21.204;2023-04-08T10:59:57;7.15;;;3.67;;
22282;SDS011;11310;51.528;21.204;2023-04-08T11:02:32;9.90;;;4.60;;
22282;SDS011;11310;51.528;21.204;2023-04-08T11:05:01;6.90;;;4.05;;
22282;SDS011;11310;51.528;21.204;2023-04-08T11:07:31;8.02;;;4.40;;
22282;SDS011;11310;51.528;21.204;2023-04-08T11:10:01;7.20;;;3.92;;
22282;SDS011;11310;51.528;21.204;2023-04-08T11:12:31;7.57;;;4.25;;
22282;SDS011;11310;51.528;21.204;2023-04-08T11:14:59;7.47;;;4.50;;
22282;SDS011;11310;51.528;21.204;2023-04-08T11:17:29;7.10;;;4.10;;
22282;SDS011;11310;51.528;21.204;2023-04-08T11:20:03;7.88;;;4.20;;
22282;SDS011;11310;51.528;21.204;2023-04-08T11:22:33;9.25;;;4.32;;
22282;SDS011;11310;51.528;21.204;2023-04-08T11:25:03;7.68;;;4.25;;
22282;SDS011;11310;51.528;21.204;2023-04-08T11:27:34;7.57;;;4.47;;
22282;SDS011;11310;51.528;21.204;2023-04-08T11:30:05;6.72;;;3.80;;
22282;SDS011;11310;51.528;21.204;2023-04-08T11:32:36;6.15;;;3.30;;
22282;SDS011;11310;51.528;21.204;2023-04-08T11:35:06;7.15;;;4.13;;
22282;SDS011;11310;51.528;21.204;2023-04-08T11:37:36;6.60;;;4.00;;
22282;SDS011;11310;51.528;21.204;2023-04-08T11:40:07;7.05;;;3.92;;
22282;SDS011;11310;51.528;21.204;2023-04-08T11:42:37;8.40;;;4.85;;
22282;SDS011;11310;51.528;21.204;2023-04-08T11:45:10;6.95;;;4.20;;
22282;SDS011;11310;51.528;21.204;2023-04-08T11:47:41;9.63;;;4.00;;
22282;SDS011;11310;51.528;21.204;2023-04-08T11:50:11;6.93;;;4.10;;
22282;SDS011;11310;51.528;21.204;2023-04-08T11:52:43;7.65;;;4.10;;
22282;SDS011;11310;51.528;21.204;2023-04-08T11:55:21;7.78;;;4.50;;
22282;SDS011;11310;51.528;21.204;2023-04-08T11:57:51;7.47;;;4.10;;
22282;SDS011;11310;51.528;21.204;2023-04-08T12:00:20;7.38;;;4.10;;
22282;SDS011;11310;51.528;21.204;2023-04-08T12:02:51;7.35;;;4.28;;
22282;SDS011;11310;51.528;21.204;2023-04-08T12:05:20;7.10;;;4.00;;
22282;SDS011;11310;51.528;21.204;2023-04-08T12:07:49;6.25;;;3.47;;
22282;SDS011;11310;51.528;21.204;2023-04-08T12:10:18;7.05;;;4.03;;
22282;SDS011;11310;51.528;21.204;2023-04-08T12:12:47;7.38;;;3.90;;
22282;SDS011;11310;51.528;21.204;2023-04-08T12:15:16;7.10;;;3.72;;
22282;SDS011;11310;51.528;21.204;2023-04-08T12:17:45;7.65;;;4.40;;
22282;SDS011;11310;51.528;21.204;2023-04-08T12:20:15;6.68;;;3.78;;
22282;SDS011;11310;51.528;21.204;2023-04-08T12:22:45;8.35;;;4.15;;
22282;SDS011;11310;51.528;21.204;2023-04-08T12:25:14;7.25;;;3.90;;
22282;SDS011;11310;51.528;21.204;2023-04-08T12:27:43;6.40;;;3.92;;
22282;SDS011;11310;51.528;21.204;2023-04-08T12:30:13;7.60;;;4.25;;
22282;SDS011;11310;51.528;21.204;2023-04-08T12:32:42;9.00;;;4.22;;
22282;SDS011;11310;51.528;21.204;2023-04-08T12:35:12;8.30;;;4.50;;
22282;SDS011;11310;51.528;21.204;2023-04-08T12:37:42;8.93;;;3.50;;
22282;SDS011;11310;51.528;21.204;2023-04-08T12:40:11;7.60;;;4.32;;
22282;SDS011;11310;51.528;21.204;2023-04-08T12:42:41;7.85;;;4.15;;
22282;SDS011;11310;51.528;21.204;2023-04-08T12:45:10;6.47;;;3.60;;
22282;SDS011;11310;51.528;21.204;2023-04-08T12:47:38;8.30;;;4.15;;
22282;SDS011;11310;51.528;21.204;2023-04-08T12:50:08;7.40;;;3.95;;
22282;SDS011;11310;51.528;21.204;2023-04-08T12:52:41;7.90;;;3.65;;
22282;SDS011;11310;51.528;21.204;2023-04-08T12:55:10;6.75;;;3.60;;
22282;SDS011;11310;51.528;21.204;2023-04-08T12:57:39;6.25;;;3.63;;
22282;SDS011;11310;51.528;21.204;2023-04-08T13:00:08;6.25;;;3.42;;
22282;SDS011;11310;51.528;21.204;2023-04-08T13:02:38;6.95;;;3.90;;
22282;SDS011;11310;51.528;21.204;2023-04-08T13:05:08;7.03;;;3.90;;
22282;SDS011;11310;51.528;21.204;2023-04-08T13:07:37;6.75;;;3.65;;
22282;SDS011;11310;51.528;21.204;2023-04-08T13:10:11;7.15;;;3.47;;
22282;SDS011;11310;51.528;21.204;2023-04-08T13:12:40;8.75;;;4.78;;
22282;SDS011;11310;51.528;21.204;2023-04-08T13:15:09;8.63;;;4.45;;
22282;SDS011;11310;51.528;21.204;2023-04-08T13:17:39;6.65;;;3.80;;
22282;SDS011;11310;51.528;21.204;2023-04-08T13:20:08;6.75;;;3.42;;
22282;SDS011;11310;51.528;21.204;2023-04-08T13:22:37;6.47;;;3.80;;
22282;SDS011;11310;51.528;21.204;2023-04-08T13:25:08;4.95;;;2.88;;
22282;SDS011;11310;51.528;21.204;2023-04-08T13:27:37;5.35;;;3.25;;
22282;SDS011;11310;51.528;21.204;2023-04-08T13:30:07;6.68;;;3.75;;
22282;SDS011;11310;51.528;21.204;2023-04-08T13:32:37;5.85;;;3.47;;
22282;SDS011;11310;51.528;21.204;2023-04-08T13:35:07;5.10;;;2.97;;
22282;SDS011;11310;51.528;21.204;2023-04-08T13:37:36;6.00;;;3.42;;
22282;SDS011;11310;51.528;21.204;2023-04-08T13:40:05;5.97;;;3.28;;
22282;SDS011;11310;51.528;21.204;2023-04-08T13:42:37;7.97;;;3.72;;
22282;SDS011;11310;51.528;21.204;2023-04-08T13:45:09;6.43;;;3.35;;
22282;SDS011;11310;51.528;21.204;2023-04-08T13:47:38;5.28;;;2.92;;
22282;SDS011;11310;51.528;21.204;2023-04-08T13:50:07;9.63;;;3.80;;
22282;SDS011;11310;51.528;21.204;2023-04-08T13:52:37;8.38;;;3.95;;
22282;SDS011;11310;51.528;21.204;2023-04-08T13:55:07;8.40;;;4.05;;
22282;SDS011;11310;51.528;21.204;2023-04-08T13:57:38;7.57;;;3.83;;
22282;SDS011;11310;51.528;21.204;2023-04-08T14:00:07;6.38;;;3.80;;
22282;SDS011;11310;51.528;21.204;2023-04-08T14:02:37;7.13;;;3.25;;
22282;SDS011;11310;51.528;21.204;2023-04-08T14:05:07;7.13;;;3.50;;
22282;SDS011;11310;51.528;21.204;2023-04-08T14:07:36;7.47;;;3.50;;
22282;SDS011;11310;51.528;21.204;2023-04-08T14:10:06;7.30;;;3.90;;
22282;SDS011;11310;51.528;21.204;2023-04-08T14:12:36;6.05;;;3.65;;
22282;SDS011;11310;51.528;21.204;2023-04-08T14:15:07;6.38;;;3.45;;
22282;SDS011;11310;51.528;21.204;2023-04-08T14:17:37;5.35;;;3.20;;
22282;SDS011;11310;51.528;21.204;2023-04-08T14:20:07;5.82;;;3.58;;
22282;SDS011;11310;51.528;21.204;2023-04-08T14:22:37;5.13;;;3.05;;
22282;SDS011;11310;51.528;21.204;2023-04-08T14:25:06;8.10;;;3.67;;
22282;SDS011;11310;51.528;21.204;2023-04-08T14:27:35;5.93;;;3.08;;
22282;SDS011;11310;51.528;21.204;2023-04-08T14:30:24;5.53;;;3.15;;
22282;SDS011;11310;51.528;21.204;2023-04-08T14:32:53;7.00;;;3.75;;
22282;SDS011;11310;51.528;21.204;2023-04-08T14:35:22;6.90;;;3.65;;
22282;SDS011;11310;51.528;21.204;2023-04-08T14:37:53;6.63;;;3.60;;
22282;SDS011;11310;51.528;21.204;2023-04-08T14:40:23;7.47;;;4.10;;
22282;SDS011;11310;51.528;21.204;2023-04-08T14:42:52;8.13;;;3.70;;
22282;SDS011;11310;51.528;21.204;2023-04-08T14:45:21;6.40;;;3.35;;
22282;SDS011;11310;51.528;21.204;2023-04-08T14:47:52;6.70;;;3.78;;
22282;SDS011;11310;51.528;21.204;2023-04-08T14:50:21;5.72;;;3.35;;
22282;SDS011;11310;51.528;21.204;2023-04-08T14:52:50;8.57;;;3.20;;
22282;SDS011;11310;51.528;21.204;2023-04-08T14:55:19;6.63;;;3.38;;